Time;durP1;ratioP1;P1;durP2;ratioP2;P2;SDS_P1;SDS_P2;PMS_P1;PMS_P2;Temp;Humidity;BMP_temperature;BMP_pressure;BME280_temperature;BME280_humidity;BME280_pressure;Samples;Min_cycle;Max_cycle;Signal;HPM_P1;HPM_P2
2023/07/13 00:09:03;;;;;;;6.20;2.23;;;17.70;99.90;;;;;;4977215;28;20456;-84
2023/07/13 00:12:03;;;;;;;7.33;2.10;;;17.70;99.90;;;;;;4978579;28;20460;-84
2023/07/13 00:14:57;;;;;;;11.13;1.83;;;17.60;99.90;;;;;;4976879;28;20441;-84
2023/07/13 00:17:40;;;;;;;6.13;1.80;;;17.60;99.90;;;;;;4990203;28;20435;-84
2023/07/13 00:20:35;;;;;;;6.43;1.77;;;17.50;99.90;;;;;;4984405;28;20559;-85
2023/07/13 00:23:10;;;;;;;7.83;1.77;;;17.50;99.90;;;;;;4980068;28;20492;-83
2023/07/13 00:25:58;;;;;;;4.47;1.90;;;17.50;99.90;;;;;;4978372;28;21031;-84
2023/07/13 00:28:58;;;;;;;7.43;1.80;;;17.50;99.90;;;;;;4981764;28;20443;-84
2023/07/13 00:31:46;;;;;;;5.83;1.73;;;17.50;99.90;;;;;;4969247;28;20465;-85
2023/07/13 00:37:33;;;;;;;;;;;;;;;;;;;;;
2023/07/13 00:40:31;;;;;;;3.87;1.50;;;17.30;99.90;;;;;;4978897;28;20558;-84
2023/07/13 00:43:25;;;;;;;4.30;1.50;;;17.30;99.90;;;;;;4973716;28;20894;-84
2023/07/13 00:45:53;;;;;;;7.47;1.83;;;17.30;99.90;;;;;;4978250;28;20476;-84
2023/07/13 00:48:32;;;;;;;6.13;2.00;;;17.20;99.90;;;;;;4966855;28;20436;-83
2023/07/13 00:51:00;;;;;;;3.40;1.30;;;17.20;99.90;;;;;;4976601;28;20446;-83
2023/07/13 00:53:55;;;;;;;3.40;1.33;;;17.20;99.90;;;;;;4979158;28;20444;-83
2023/07/13 00:56:40;;;;;;;6.13;1.50;;;17.20;99.90;;;;;;4989413;28;20452;-84
2023/07/13 00:59:26;;;;;;;3.60;1.50;;;17.20;99.90;;;;;;4978005;28;20448;-84
2023/07/13 01:01:57;;;;;;;4.70;1.67;;;17.10;99.90;;;;;;4975509;28;20476;-83
2023/07/13 01:04:36;;;;;;;4.93;2.00;;;17.00;99.90;;;;;;4980393;28;20465;-84
2023/07/13 01:09:59;;;;;;;4.57;1.57;;;17.00;99.90;;;;;;4980452;28;20494;-84
2023/07/13 01:12:32;;;;;;;5.93;2.07;;;17.00;99.90;;;;;;4971874;28;20531;-83
2023/07/13 01:15:23;;;;;;;9.30;2.10;;;16.90;99.90;;;;;;4974522;28;20432;-84
2023/07/13 01:18:18;;;;;;;5.93;1.67;;;16.90;99.90;;;;;;4970443;28;20448;-84
2023/07/13 01:21:06;;;;;;;4.87;1.87;;;16.90;99.90;;;;;;4973716;28;20479;-83
2023/07/13 01:23:48;;;;;;;6.03;1.80;;;16.90;99.90;;;;;;4975296;28;20511;-83
2023/07/13 01:26:14;;;;;;;4.63;1.90;;;16.80;99.90;;;;;;4978451;28;20432;-84
2023/07/13 01:28:48;;;;;;;3.77;1.80;;;16.80;99.90;;;;;;4981064;28;20439;-84
2023/07/13 01:31:19;;;;;;;4.53;1.83;;;16.80;99.90;;;;;;4976364;28;20446;-84
2023/07/13 01:34:21;;;;;;;5.43;2.10;;;16.70;99.90;;;;;;4977025;28;20506;-84
2023/07/13 01:36:53;;;;;;;5.33;2.00;;;16.70;99.90;;;;;;4975609;28;20443;-84
2023/07/13 01:39:24;;;;;;;5.47;1.93;;;16.70;99.90;;;;;;4978314;28;20444;-84
2023/07/13 01:42:13;;;;;;;7.80;2.03;;;16.70;99.90;;;;;;4978526;28;20494;-84
2023/07/13 01:44:44;;;;;;;7.30;2.10;;;16.60;99.90;;;;;;4979216;28;20428;-84
2023/07/13 01:47:30;;;;;;;7.20;2.13;;;16.60;1.00;;;;;;4979003;28;20443;-84
2023/07/13 01:50:01;;;;;;;8.30;2.80;;;16.60;1.00;;;;;;4968970;28;20459;-83
2023/07/13 01:52:33;;;;;;;3.20;2.10;;;16.60;1.00;;;;;;4997047;23;20565;-84
2023/07/13 01:55:45;;;;;;;8.83;2.00;;;16.60;1.00;;;;;;4997229;28;20952;-84
2023/07/13 02:01:37;;;;;;;4.07;1.87;;;16.50;1.00;;;;;;4989840;28;20488;-84
2023/07/13 02:04:08;;;;;;;8.53;2.50;;;16.50;1.00;;;;;;4997417;28;20449;-84
2023/07/13 02:06:48;;;;;;;5.53;2.30;;;16.50;1.00;;;;;;4985312;28;20435;-83
2023/07/13 02:09:19;;;;;;;4.60;1.90;;;16.50;1.00;;;;;;5003080;28;20448;-83
2023/07/13 02:12:07;;;;;;;3.83;1.80;;;16.50;1.00;;;;;;4995752;28;20469;-84
2023/07/13 02:14:46;;;;;;;3.80;1.80;;;16.40;1.00;;;;;;4998106;28;20913;-84
2023/07/13 02:17:17;;;;;;;3.60;1.77;;;16.40;1.00;;;;;;4998729;28;20450;-84
2023/07/13 02:19:45;;;;;;;3.73;1.77;;;16.40;1.00;;;;;;5008586;28;20443;-84
2023/07/13 02:22:22;;;;;;;5.67;2.00;;;16.40;1.00;;;;;;4994923;28;20458;-84
2023/07/13 02:25:14;;;;;;;6.13;2.10;;;16.40;1.00;;;;;;4997706;28;20457;-84
2023/07/13 02:28:14;;;;;;;3.47;1.93;;;16.30;1.00;;;;;;4996254;28;20438;-84
2023/07/13 02:30:42;;;;;;;5.57;2.40;;;16.30;1.00;;;;;;4998923;28;20446;-84
2023/07/13 02:33:10;;;;;;;35.40;2.83;;;16.30;1.00;;;;;;4997710;28;20469;-84
2023/07/13 02:38:39;;;;;;;10.40;2.57;;;16.30;1.00;;;;;;4996894;28;20481;-84
2023/07/13 02:41:19;;;;;;;6.80;2.20;;;16.20;1.00;;;;;;4997117;28;20766;-83
2023/07/13 02:44:02;;;;;;;5.93;2.47;;;16.20;1.00;;;;;;5003041;28;20460;-83
2023/07/13 02:46:38;;;;;;;7.50;2.10;;;16.10;35.40;;;;;;5004671;28;20452;-83
2023/07/13 02:49:35;;;;;;;4.97;2.17;;;16.10;1.00;;;;;;5008665;28;20431;-84
2023/07/13 02:52:16;;;;;;;6.67;2.67;;;16.10;1.00;;;;;;4994748;28;21109;-84
2023/07/13 02:54:57;;;;;;;6.50;2.60;;;16.10;2.30;;;;;;5001808;28;20886;-84
2023/07/13 03:00:57;;;;;;;7.40;2.50;;;16.10;77.30;;;;;;5004926;28;20469;-83
2023/07/13 03:03:46;;;;;;;10.43;2.37;;;16.00;97.20;;;;;;4997080;28;20451;-83
2023/07/13 03:06:30;;;;;;;6.57;2.23;;;16.00;99.90;;;;;;5010628;28;20458;-83
2023/07/13 03:09:13;;;;;;;5.27;2.00;;;16.00;99.90;;;;;;4997683;28;20465;-83
2023/07/13 03:11:59;;;;;;;4.83;1.80;;;15.90;99.90;;;;;;4987797;28;20482;-83
2023/07/13 03:14:35;;;;;;;4.53;2.20;;;15.90;99.90;;;;;;5009952;28;20896;-84
2023/07/13 03:17:21;;;;;;;6.10;2.07;;;15.90;99.90;;;;;;4993554;28;20440;-84
2023/07/13 03:20:00;;;;;;;6.13;1.80;;;15.90;99.90;;;;;;4998360;28;20499;-84
2023/07/13 03:22:36;;;;;;;5.30;1.90;;;15.80;99.90;;;;;;4995039;28;20462;-83
2023/07/13 03:25:27;;;;;;;3.23;1.70;;;15.80;99.90;;;;;;4998204;28;20447;-84
2023/07/13 03:27:59;;;;;;;6.00;2.33;;;15.80;99.90;;;;;;4998824;28;20812;-83
2023/07/13 03:30:40;;;;;;;;;;;;;;;;;;;;;
2023/07/13 03:33:19;;;;;;;6.17;1.97;;;15.80;99.90;;;;;;4993720;28;20577;-83
2023/07/13 03:35:48;;;;;;;6.20;2.03;;;15.80;99.90;;;;;;4995176;28;20885;-84
2023/07/13 03:38:13;;;;;;;6.57;2.20;;;15.80;99.90;;;;;;5005554;28;20442;-83
2023/07/13 03:40:42;;;;;;;6.70;2.37;;;15.80;99.90;;;;;;4995632;28;20994;-84
2023/07/13 03:43:10;;;;;;;4.50;2.43;;;15.80;99.90;;;;;;4997266;28;20376;-84
2023/07/13 03:45:40;;;;;;;9.37;2.53;;;15.70;99.90;;;;;;5004383;28;20431;-83
2023/07/13 03:48:09;;;;;;;5.97;2.90;;;15.80;99.90;;;;;;4996562;28;20447;-83
2023/07/13 03:50:47;;;;;;;6.67;2.37;;;15.80;99.90;;;;;;4993548;28;20541;-84
2023/07/13 03:53:16;;;;;;;4.00;2.10;;;15.80;99.90;;;;;;4992105;28;20513;-84
2023/07/13 03:55:52;;;;;;;8.43;2.77;;;15.80;99.90;;;;;;4997159;28;20457;-84
2023/07/13 03:58:45;;;;;;;6.40;2.57;;;15.80;99.90;;;;;;5001425;28;20492;-84
2023/07/13 04:01:12;;;;;;;7.00;2.57;;;15.80;99.90;;;;;;4997917;28;20568;-83
2023/07/13 04:03:41;;;;;;;5.00;2.33;;;15.90;99.90;;;;;;4995778;28;20507;-84
2023/07/13 04:06:15;;;;;;;9.30;2.60;;;15.90;99.90;;;;;;5002154;28;20993;-83
2023/07/13 04:08:45;;;;;;;5.30;1.77;;;15.90;99.90;;;;;;5001239;28;20437;-82
2023/07/13 04:11:22;;;;;;;9.40;2.73;;;15.90;99.90;;;;;;4995490;28;20450;-83
2023/07/13 04:13:48;;;;;;;8.70;2.63;;;15.90;99.90;;;;;;5000453;28;20444;-84
2023/07/13 04:16:15;;;;;;;6.90;2.83;;;16.00;99.90;;;;;;4996298;28;20452;-84
2023/07/13 04:18:44;;;;;;;6.07;3.57;;;16.00;99.90;;;;;;5013462;28;20450;-84
2023/07/13 04:21:13;;;;;;;9.93;3.17;;;16.10;99.90;;;;;;4996692;28;20474;-83
2023/07/13 04:23:41;;;;;;;5.43;2.27;;;16.10;99.90;;;;;;5002095;28;20464;-83
2023/07/13 04:26:07;;;;;;;6.27;2.70;;;16.20;99.90;;;;;;5005226;28;20533;-84
2023/07/13 04:28:36;;;;;;;5.60;2.10;;;16.20;99.90;;;;;;5001956;28;20485;-84
2023/07/13 04:31:12;;;;;;;7.23;2.83;;;16.30;99.90;;;;;;5006564;28;20229;-83
2023/07/13 04:33:53;;;;;;;;;;;;;;;;;;;;;
2023/07/13 04:36:31;;;;;;;10.77;2.67;;;16.40;99.90;;;;;;5004236;28;20537;-84
2023/07/13 04:39:06;;;;;;;7.10;2.60;;;16.40;99.90;;;;;;4997900;28;20478;-84
2023/07/13 04:41:35;;;;;;;8.33;3.03;;;16.50;99.90;;;;;;5007253;28;20483;-84
2023/07/13 04:44:00;;;;;;;8.67;3.30;;;16.50;99.90;;;;;;5005826;28;20448;-84
2023/07/13 04:46:26;;;;;;;4.83;2.53;;;16.60;99.90;;;;;;5007293;28;20537;-84
2023/07/13 04:49:06;;;;;;;10.33;2.80;;;16.70;99.90;;;;;;5005651;28;20232;-84
2023/07/13 04:51:40;;;;;;;10.10;2.53;;;16.70;99.90;;;;;;5008530;28;20649;-84
2023/07/13 04:54:21;;;;;;;7.20;2.80;;;16.80;99.90;;;;;;5001143;28;20452;-84
2023/07/13 04:56:47;;;;;;;7.00;2.33;;;16.90;67.30;;;;;;5002107;28;20454;-83
2023/07/13 04:59:13;;;;;;;7.80;2.90;;;17.00;22.00;;;;;;5009702;28;20526;-84
2023/07/13 05:01:38;;;;;;;6.03;2.40;;;17.10;3.40;;;;;;4991871;28;20884;-83
2023/07/13 05:04:06;;;;;;;5.80;2.53;;;17.20;1.00;;;;;;5007961;28;20194;-83
2023/07/13 05:06:41;;;;;;;4.97;2.90;;;17.30;1.00;;;;;;5001373;28;20185;-83
2023/07/13 05:09:07;;;;;;;6.87;2.30;;;17.40;1.00;;;;;;5002403;28;20439;-84
2023/07/13 05:11:33;;;;;;;7.03;2.07;;;17.60;1.00;;;;;;4997360;28;20459;-84
2023/07/13 05:14:16;;;;;;;9.87;2.50;;;17.70;1.00;;;;;;5003436;28;20440;-84
2023/07/13 05:16:44;;;;;;;7.10;3.23;;;17.80;1.00;;;;;;4999271;28;20197;-84
2023/07/13 05:19:12;;;;;;;12.47;3.10;;;17.90;1.00;;;;;;5003317;28;20817;-84
2023/07/13 05:21:38;;;;;;;5.80;2.70;;;17.90;1.00;;;;;;4999616;28;20549;-83
2023/07/13 05:24:04;;;;;;;8.63;2.60;;;18.10;1.00;;;;;;5007658;28;20473;-83
2023/07/13 05:26:42;;;;;;;9.33;3.03;;;18.20;1.00;;;;;;5010666;28;20180;-84
2023/07/13 05:29:22;;;;;;;10.20;2.73;;;18.30;1.00;;;;;;4999539;28;22106;-84
2023/07/13 05:31:48;;;;;;;10.47;2.70;;;18.50;1.00;;;;;;5000870;28;20498;-84
2023/07/13 05:34:17;;;;;;;5.63;1.97;;;18.60;1.00;;;;;;4990988;28;20445;-84
2023/07/13 05:36:43;;;;;;;11.33;2.93;;;18.70;99.90;;;;;;5005021;28;20873;-83
2023/07/13 05:39:11;;;;;;;8.73;2.33;;;18.80;99.90;;;;;;5013051;28;20443;-84
2023/07/13 05:41:37;;;;;;;9.60;3.20;;;18.90;99.90;;;;;;5007236;28;20245;-85
2023/07/13 05:44:06;;;;;;;11.07;3.37;;;18.90;99.90;;;;;;4999102;28;20442;-84
2023/07/13 05:46:31;;;;;;;7.87;2.83;;;19.10;99.90;;;;;;4998757;28;20653;-85
2023/07/13 05:49:04;;;;;;;5.90;2.73;;;19.20;99.90;;;;;;5011538;28;20469;-84
2023/07/13 05:51:37;;;;;;;9.33;2.70;;;19.20;99.90;;;;;;5000267;28;20209;-84
2023/07/13 05:54:25;;;;;;;5.20;2.70;;;19.40;99.90;;;;;;5006983;28;20536;-85
2023/07/13 05:56:51;;;;;;;7.87;2.60;;;19.70;99.90;;;;;;5012555;28;20466;-83
2023/07/13 05:59:17;;;;;;;12.60;3.00;;;20.00;99.90;;;;;;5012562;28;20447;-84
2023/07/13 06:01:43;;;;;;;9.87;3.17;;;20.20;99.90;;;;;;5001511;28;20235;-84
2023/07/13 06:04:12;;;;;;;8.27;3.23;;;20.50;99.90;;;;;;4992665;28;20479;-84
2023/07/13 06:06:37;;;;;;;4.73;2.47;;;21.00;99.90;;;;;;5000902;28;20242;-84
2023/07/13 06:09:03;;;;;;;6.43;3.00;;;21.70;99.90;;;;;;5007798;28;20437;-84
2023/07/13 06:11:29;;;;;;;7.63;2.80;;;22.40;99.90;;;;;;5006341;28;20278;-84
2023/07/13 06:13:56;;;;;;;8.40;2.90;;;23.70;99.90;;;;;;4998414;28;20242;-84
2023/07/13 06:16:22;;;;;;;7.73;2.50;;;24.50;99.90;;;;;;5000692;28;20963;-84
2023/07/13 06:18:47;;;;;;;6.47;2.60;;;24.00;99.90;;;;;;4997060;28;20486;-84
2023/07/13 06:21:21;;;;;;;7.87;3.40;;;23.60;99.90;;;;;;4999089;28;20475;-84
2023/07/13 06:23:48;;;;;;;10.77;4.03;;;23.00;99.90;;;;;;5002088;28;20207;-84
2023/07/13 06:26:14;;;;;;;8.40;2.87;;;22.50;99.90;;;;;;5004229;28;20466;-84
2023/07/13 06:28:42;;;;;;;11.87;4.20;;;22.20;99.90;;;;;;5005184;28;20442;-84
2023/07/13 06:31:22;;;;;;;11.43;4.03;;;21.70;99.90;;;;;;4999487;28;20444;-83
2023/07/13 06:33:47;;;;;;;12.20;3.40;;;21.40;99.90;;;;;;4995999;28;20444;-84
2023/07/13 06:36:23;;;;;;;7.10;3.77;;;21.00;99.90;;;;;;4997489;28;20855;-84
2023/07/13 06:38:48;;;;;;;10.37;4.03;;;20.70;99.90;;;;;;5006217;28;20254;-85
2023/07/13 06:41:14;;;;;;;6.80;3.47;;;20.60;99.90;;;;;;5007134;28;20553;-84
2023/07/13 06:43:48;;;;;;;8.93;2.90;;;20.50;99.90;;;;;;5000055;28;20197;-84
2023/07/13 06:46:16;;;;;;;13.30;3.63;;;20.80;99.90;;;;;;5000262;28;20246;-84
2023/07/13 06:48:42;;;;;;;7.87;2.60;;;21.40;99.90;;;;;;4994666;28;21001;-84
2023/07/13 06:51:08;;;;;;;8.90;3.30;;;21.90;99.90;;;;;;5003655;28;20449;-84
2023/07/13 06:53:34;;;;;;;11.50;3.83;;;21.90;99.90;;;;;;4999797;28;20190;-85
2023/07/13 06:55:59;;;;;;;7.80;2.93;;;21.80;99.90;;;;;;4998362;28;20597;-84
2023/07/13 06:58:25;;;;;;;9.50;3.10;;;21.60;99.90;;;;;;4997958;28;20205;-84
2023/07/13 07:00:53;;;;;;;12.13;4.20;;;21.40;99.90;;;;;;4998873;28;20209;-84
2023/07/13 07:03:20;;;;;;;9.93;3.00;;;21.20;99.90;;;;;;5000354;28;20207;-84
2023/07/13 07:05:45;;;;;;;9.77;3.70;;;21.50;99.90;;;;;;5012892;28;20442;-84
2023/07/13 07:08:11;;;;;;;9.33;2.57;;;22.40;99.90;;;;;;5002407;28;20443;-84
2023/07/13 07:10:37;;;;;;;10.03;2.93;;;24.80;99.90;;;;;;5002241;28;20195;-84
2023/07/13 07:13:03;;;;;;;13.20;4.17;;;26.10;99.90;;;;;;4997689;28;20212;-85
2023/07/13 07:15:29;;;;;;;10.07;3.33;;;26.30;99.40;;;;;;5001499;28;20214;-84
2023/07/13 07:17:54;;;;;;;6.30;3.10;;;27.00;95.90;;;;;;4999410;28;20466;-84
2023/07/13 07:20:20;;;;;;;8.10;3.13;;;26.60;91.60;;;;;;4994368;28;20208;-84
2023/07/13 07:22:48;;;;;;;5.90;2.80;;;26.20;90.70;;;;;;4997009;28;20215;-84
2023/07/13 07:25:16;;;;;;;10.77;2.97;;;26.10;89.90;;;;;;4997912;28;20963;-83
2023/07/13 07:27:42;;;;;;;12.30;3.57;;;25.70;84.60;;;;;;4999208;28;20492;-84
2023/07/13 07:30:08;;;;;;;8.93;3.70;;;25.20;83.60;;;;;;4997671;28;20454;-84
2023/07/13 07:32:34;;;;;;;11.10;3.80;;;24.50;82.40;;;;;;4999294;28;20279;-84
2023/07/13 07:35:07;;;;;;;10.90;3.50;;;24.00;86.00;;;;;;5006080;28;20187;-84
2023/07/13 07:37:32;;;;;;;11.40;4.03;;;23.60;88.00;;;;;;4993904;28;20247;-84
2023/07/13 07:39:59;;;;;;;15.30;4.30;;;23.40;90.90;;;;;;4994757;28;20468;-86
2023/07/13 07:42:32;;;;;;;12.67;4.03;;;23.20;92.50;;;;;;4997273;28;20204;-84
2023/07/13 07:45:21;;;;;;;16.70;4.30;;;23.00;93.80;;;;;;5000557;28;20853;-84
2023/07/13 07:48:25;;;;;;;13.77;4.00;;;22.90;95.50;;;;;;5000267;28;20451;-84
2023/07/13 07:50:57;;;;;;;15.57;5.07;;;23.00;96.40;;;;;;5005862;28;20582;-84
2023/07/13 07:53:33;;;;;;;12.83;4.33;;;23.00;97.00;;;;;;5010213;28;20503;-85
2023/07/13 07:59:49;;;;;;;13.63;4.10;;;23.20;97.50;;;;;;5003002;28;20455;-84
2023/07/13 08:02:38;;;;;;;9.57;3.80;;;23.40;97.00;;;;;;5003818;28;20451;-84
2023/07/13 08:05:40;;;;;;;;;;;;;;;;;;;;;
2023/07/13 08:08:32;;;;;;;12.20;3.70;;;24.50;95.80;;;;;;5006106;28;20497;-83
2023/07/13 08:11:11;;;;;;;12.93;3.33;;;24.80;93.30;;;;;;5006671;28;20430;-83
2023/07/13 08:17:18;;;;;;;12.23;3.43;;;25.40;91.80;;;;;;5003462;28;20502;-84
2023/07/13 08:20:15;;;;;;;13.40;3.30;;;25.70;87.20;;;;;;5010888;28;20512;-83
2023/07/13 08:22:48;;;;;;;9.70;3.27;;;26.10;84.20;;;;;;5008395;28;20516;-84
2023/07/13 08:25:29;;;;;;;8.03;3.37;;;26.40;83.40;;;;;;4996434;28;20545;-84
2023/07/13 08:27:55;;;;;;;9.97;3.77;;;26.10;76.80;;;;;;5002292;28;20439;-83
2023/07/13 08:30:36;;;;;;;8.73;3.20;;;25.60;74.50;;;;;;5003864;28;20441;-84
2023/07/13 08:33:17;;;;;;;;;;;;;;;;;;;;;
2023/07/13 08:35:49;;;;;;;8.17;2.80;;;26.00;73.40;;;;;;5010841;28;20532;-84
2023/07/13 08:38:31;;;;;;;5.40;2.53;;;26.30;72.10;;;;;;5000269;28;20446;-84
2023/07/13 08:41:23;;;;;;;;;;;;;;;;;;;;;
2023/07/13 08:44:23;;;;;;;6.40;2.87;;;28.90;63.90;;;;;;5008853;28;20646;-84
2023/07/13 08:47:03;;;;;;;9.20;2.63;;;30.40;60.30;;;;;;5005877;28;20516;-84
2023/07/13 08:49:36;;;;;;;8.83;2.90;;;32.10;72.80;;;;;;4997104;28;20466;-85
2023/07/13 08:52:27;;;;;;;6.30;2.27;;;31.30;67.40;;;;;;5009112;28;20557;-84
2023/07/13 08:55:16;;;;;;;8.47;3.67;;;31.60;54.60;;;;;;5013892;28;20442;-84
2023/07/13 08:57:57;;;;;;;8.43;2.67;;;31.50;46.30;;;;;;4999413;28;20485;-84
2023/07/13 09:01:28;;;;;;;10.20;3.03;;;31.30;40.60;;;;;;5001019;28;20477;-84
2023/07/13 09:07:31;;;;;;;7.00;2.83;;;30.90;34.20;;;;;;4999530;28;20462;-83
2023/07/13 09:10:20;;;;;;;5.13;2.00;;;34.30;35.10;;;;;;4997102;28;20663;-84
2023/07/13 09:13:14;;;;;;;7.23;2.30;;;35.90;28.70;;;;;;4991767;28;20506;-81
2023/07/13 09:15:58;;;;;;;6.13;2.67;;;37.50;21.10;;;;;;5001063;28;20454;-83
2023/07/13 09:18:33;;;;;;;5.77;1.90;;;37.80;14.70;;;;;;5003685;28;20440;-83
2023/07/13 09:21:02;;;;;;;9.87;3.00;;;38.40;10.50;;;;;;4996025;28;20466;-83
2023/07/13 09:23:31;;;;;;;6.10;2.60;;;37.40;6.60;;;;;;5000009;28;20470;-83
2023/07/13 09:26:31;;;;;;;7.10;2.30;;;39.10;5.50;;;;;;4997885;28;20992;-83
2023/07/13 09:29:37;;;;;;;9.20;2.47;;;40.80;1.90;;;;;;4996180;28;20442;-83
2023/07/13 09:32:13;;;;;;;4.73;2.30;;;40.10;1.00;;;;;;4967108;28;20482;-82
2023/07/13 09:34:38;;;;;;;5.10;2.20;;;40.60;1.00;;;;;;5010659;28;20437;-81
2023/07/13 09:37:07;;;;;;;6.20;2.43;;;41.10;1.00;;;;;;5000047;28;20446;-80
2023/07/13 09:39:42;;;;;;;5.07;2.10;;;39.50;1.00;;;;;;4995554;28;20569;-80
2023/07/13 09:42:13;;;;;;;6.03;2.03;;;37.20;1.00;;;;;;4997788;28;20532;-80
2023/07/13 09:45:14;;;;;;;5.90;2.13;;;38.10;1.00;;;;;;5003756;28;20445;-80
2023/07/13 09:47:43;;;;;;;5.40;2.20;;;37.40;1.00;;;;;;4993420;28;20467;-81
2023/07/13 09:50:20;;;;;;;5.17;2.37;;;37.70;1.00;;;;;;4997171;28;20468;-80
2023/07/13 09:52:54;;;;;;;5.07;2.27;;;37.40;1.00;;;;;;4997079;28;20458;-80
2023/07/13 09:55:44;;;;;;;4.20;1.90;;;36.50;1.00;;;;;;4990260;28;20451;-78
2023/07/13 09:58:27;;;;;;;6.13;2.43;;;35.60;1.00;;;;;;5007135;28;20476;-80
2023/07/13 10:01:09;;;;;;;8.47;2.40;;;34.80;1.00;;;;;;4999353;28;20791;-79
2023/07/13 10:03:39;;;;;;;7.77;2.20;;;33.80;1.00;;;;;;4994359;28;20446;-80
2023/07/13 10:06:34;;;;;;;5.90;2.27;;;35.20;1.00;;;;;;4991838;28;20443;-80
2023/07/13 10:09:16;;;;;;;5.87;1.87;;;34.90;1.00;;;;;;4980518;28;20841;-81
2023/07/13 10:11:44;;;;;;;4.23;2.10;;;35.10;1.00;;;;;;4994416;28;20523;-80
2023/07/13 10:14:25;;;;;;;7.17;2.20;;;35.80;1.00;;;;;;4995070;28;20814;-81
2023/07/13 10:17:01;;;;;;;4.80;1.70;;;35.10;1.00;;;;;;4989022;28;20442;-80
2023/07/13 10:19:32;;;;;;;3.83;1.73;;;34.50;1.00;;;;;;4979884;28;20435;-79
2023/07/13 10:22:16;;;;;;;5.53;2.10;;;34.80;1.00;;;;;;4992558;28;20604;-82
2023/07/13 10:24:42;;;;;;;6.10;2.23;;;35.10;1.00;;;;;;4988819;28;20482;-79
2023/07/13 10:27:42;;;;;;;7.47;2.00;;;33.50;1.00;;;;;;4988825;28;20755;-81
2023/07/13 10:30:29;;;;;;;4.33;2.27;;;33.70;1.00;;;;;;4983980;28;20466;-80
2023/07/13 10:33:12;;;;;;;10.23;3.40;;;33.50;1.00;;;;;;4985844;28;20904;-80
2023/07/13 10:35:46;;;;;;;4.40;1.77;;;33.00;1.00;;;;;;4990823;28;20432;-80
2023/07/13 10:38:28;;;;;;;7.60;2.23;;;33.60;1.00;;;;;;4980260;28;20449;-81
2023/07/13 10:41:07;;;;;;;3.33;1.57;;;34.10;1.00;;;;;;4984771;28;20485;-81
2023/07/13 10:43:45;;;;;;;3.63;1.73;;;35.60;1.00;;;;;;4989173;28;20446;-80
2023/07/13 10:46:17;;;;;;;5.73;1.90;;;37.40;1.00;;;;;;4987264;28;20442;-81
2023/07/13 10:48:54;;;;;;;4.10;1.60;;;35.90;1.00;;;;;;4987560;28;20448;-80
2023/07/13 10:51:33;;;;;;;4.80;1.90;;;34.30;1.00;;;;;;4998445;28;20474;-80
2023/07/13 10:54:25;;;;;;;4.80;2.10;;;32.80;1.00;;;;;;4984359;28;20493;-81
2023/07/13 10:57:32;;;;;;;;;;;;;;;;;;;;;
2023/07/13 11:00:19;;;;;;;4.20;1.80;;;30.80;1.00;;;;;;4988099;28;20458;-80
2023/07/13 11:03:08;;;;;;;5.20;1.73;;;30.70;1.00;;;;;;4998728;28;20478;-80
2023/07/13 11:05:46;;;;;;;5.47;1.80;;;30.50;1.00;;;;;;4989522;28;20461;-82
2023/07/13 11:08:43;;;;;;;6.30;2.13;;;30.30;1.00;;;;;;4985909;28;20970;-81
2023/07/13 11:11:33;;;;;;;3.73;1.90;;;30.50;1.00;;;;;;4999924;28;20488;-80
2023/07/13 11:14:04;;;;;;;7.43;2.40;;;33.20;1.00;;;;;;4972918;28;20442;-82
2023/07/13 11:16:34;;;;;;;8.60;2.00;;;34.90;1.00;;;;;;4986368;28;20862;-82
2023/07/13 11:19:05;;;;;;;3.20;1.50;;;36.20;1.00;;;;;;4986010;28;20439;-79
2023/07/13 11:21:31;;;;;;;4.20;1.83;;;36.50;1.00;;;;;;4983681;28;20474;-80
2023/07/13 11:24:17;;;;;;;5.60;1.93;;;35.30;1.00;;;;;;4986136;28;20545;-82
2023/07/13 11:26:52;;;;;;;4.17;1.83;;;35.10;1.00;;;;;;4977482;28;20184;-82
2023/07/13 11:29:17;;;;;;;5.60;1.67;;;36.20;1.00;;;;;;4986499;28;20445;-82
2023/07/13 11:31:51;;;;;;;4.63;1.80;;;35.90;1.00;;;;;;4984002;28;20475;-81
2023/07/13 11:34:25;;;;;;;4.97;1.93;;;36.10;1.00;;;;;;4983500;28;20194;-82
2023/07/13 11:40:06;;;;;;;6.77;1.80;;;36.90;1.00;;;;;;4991347;28;20808;-82
2023/07/13 11:42:31;;;;;;;3.80;1.60;;;36.80;1.00;;;;;;4983658;28;20465;-82
2023/07/13 11:44:57;;;;;;;3.87;1.77;;;36.90;1.00;;;;;;4991440;28;21148;-80
2023/07/13 11:47:25;;;;;;;4.17;1.67;;;36.60;1.00;;;;;;4988540;28;20506;-82
2023/07/13 11:50:01;;;;;;;4.20;1.70;;;35.50;1.00;;;;;;4984000;28;20194;-81
2023/07/13 11:52:35;;;;;;;4.30;1.47;;;35.40;1.00;;;;;;4985862;28;20454;-81
2023/07/13 11:55:24;;;;;;;2.90;1.27;;;35.80;1.00;;;;;;4990164;28;20524;-82
2023/07/13 11:57:55;;;;;;;4.63;1.60;;;35.80;1.00;;;;;;4986588;28;20454;-80
2023/07/13 12:00:28;;;;;;;4.60;1.27;;;35.30;1.00;;;;;;4984896;28;21023;-81
2023/07/13 12:02:59;;;;;;;3.00;1.40;;;35.90;1.00;;;;;;4984798;28;20903;-82
2023/07/13 12:05:24;;;;;;;5.10;1.50;;;35.90;1.00;;;;;;4986195;28;20523;-80
2023/07/13 12:07:51;;;;;;;5.20;1.10;;;35.70;1.00;;;;;;4991277;28;20450;-81
2023/07/13 12:10:28;;;;;;;2.47;1.20;;;35.40;1.00;;;;;;4988205;28;20272;-81
2023/07/13 12:13:03;;;;;;;4.70;1.80;;;34.70;1.00;;;;;;4992252;28;20469;-80
2023/07/13 12:15:40;;;;;;;6.43;2.60;;;34.50;1.00;;;;;;4986083;28;21036;-80
2023/07/13 12:18:19;;;;;;;5.53;1.10;;;35.00;1.00;;;;;;4982330;28;20660;-81
2023/07/13 12:20:47;;;;;;;4.13;1.50;;;34.90;1.00;;;;;;4988264;28;20855;-81
2023/07/13 12:23:30;;;;;;;3.93;1.20;;;34.70;1.00;;;;;;4980033;28;20506;-80
2023/07/13 12:25:58;;;;;;;3.47;1.63;;;34.20;1.00;;;;;;4983129;28;20489;-81
2023/07/13 12:28:45;;;;;;;6.93;1.50;;;33.80;1.00;;;;;;4978162;28;20455;-80
2023/07/13 12:31:30;;;;;;;5.60;1.70;;;33.90;1.00;;;;;;4985444;28;20472;-81
2023/07/13 12:34:20;;;;;;;7.50;1.40;;;33.30;1.00;;;;;;4981701;28;20442;-81
2023/07/13 12:37:11;;;;;;;5.07;1.50;;;33.10;1.00;;;;;;4984513;28;20466;-81
2023/07/13 12:39:44;;;;;;;4.60;1.80;;;32.90;1.00;;;;;;4979906;28;20462;-80
2023/07/13 12:42:24;;;;;;;4.23;1.80;;;33.30;1.00;;;;;;4977407;28;20460;-82
2023/07/13 12:44:50;;;;;;;3.37;1.70;;;33.90;1.00;;;;;;4992117;28;20451;-82
2023/07/13 12:47:23;;;;;;;4.50;1.60;;;33.20;1.00;;;;;;4993176;28;20443;-81
2023/07/13 12:49:53;;;;;;;5.43;1.80;;;33.00;1.00;;;;;;4983482;28;20443;-80
2023/07/13 12:52:30;;;;;;;3.50;1.53;;;33.10;1.00;;;;;;4988603;28;20466;-82
2023/07/13 12:55:01;;;;;;;4.13;1.70;;;32.60;1.00;;;;;;4989963;28;20521;-81
2023/07/13 12:57:26;;;;;;;5.70;1.77;;;31.90;1.00;;;;;;4985727;28;20460;-81
2023/07/13 13:00:04;;;;;;;3.40;1.47;;;32.20;1.00;;;;;;4995441;28;20443;-81
2023/07/13 13:02:34;;;;;;;4.70;1.80;;;32.30;1.00;;;;;;4979092;28;20831;-79
2023/07/13 13:04:59;;;;;;;3.23;1.30;;;32.30;1.00;;;;;;4986581;28;20517;-81
2023/07/13 13:07:25;;;;;;;3.27;1.20;;;32.70;1.00;;;;;;4983339;28;20486;-82
2023/07/13 13:09:53;;;;;;;2.77;1.20;;;32.60;1.00;;;;;;4986625;28;20194;-81
2023/07/13 13:12:19;;;;;;;5.50;1.20;;;32.70;1.00;;;;;;4984857;28;20463;-81
2023/07/13 13:14:45;;;;;;;2.63;1.40;;;32.70;1.00;;;;;;4989181;28;20441;-81
2023/07/13 13:17:24;;;;;;;3.90;1.63;;;32.60;1.00;;;;;;4980560;28;20529;-82
2023/07/13 13:19:54;;;;;;;5.53;1.70;;;32.20;1.00;;;;;;4986680;28;20444;-80
2023/07/13 13:22:20;;;;;;;4.20;1.87;;;32.50;1.00;;;;;;4984474;28;21498;-81
2023/07/13 13:24:46;;;;;;;5.03;1.53;;;32.60;1.00;;;;;;4984545;28;20469;-80
2023/07/13 13:27:22;;;;;;;2.97;1.40;;;32.30;1.00;;;;;;4983235;28;20443;-81
2023/07/13 13:29:54;;;;;;;3.87;1.60;;;31.60;1.00;;;;;;4986120;28;20476;-79
2023/07/13 13:32:19;;;;;;;5.67;2.17;;;31.40;1.00;;;;;;4979532;28;20464;-81
2023/07/13 13:34:45;;;;;;;3.17;1.47;;;31.60;1.00;;;;;;4984875;28;20530;-80
2023/07/13 13:37:22;;;;;;;4.10;1.70;;;31.50;1.00;;;;;;4986573;28;20192;-82
2023/07/13 13:39:49;;;;;;;8.00;1.80;;;31.70;1.00;;;;;;4987546;28;20438;-82
2023/07/13 13:42:15;;;;;;;3.17;1.60;;;31.80;1.00;;;;;;4979942;28;20984;-80
2023/07/13 13:44:43;;;;;;;3.77;1.70;;;31.70;1.00;;;;;;4983601;28;20467;-82
2023/07/13 13:47:30;;;;;;;5.83;1.50;;;31.70;1.00;;;;;;4981860;28;20453;-81
2023/07/13 13:49:56;;;;;;;2.60;1.37;;;31.40;1.00;;;;;;4986436;28;20443;-81
2023/07/13 13:52:21;;;;;;;5.27;1.67;;;31.10;1.00;;;;;;4977776;28;20510;-81
2023/07/13 13:54:47;;;;;;;2.40;1.50;;;31.20;1.00;;;;;;4984502;28;20191;-81
2023/07/13 13:57:12;;;;;;;5.20;1.80;;;31.20;1.00;;;;;;4980750;28;20195;-82
2023/07/13 13:59:39;;;;;;;4.13;1.50;;;30.90;1.00;;;;;;4988045;28;20199;-82
2023/07/13 14:02:27;;;;;;;10.13;2.30;;;30.70;1.00;;;;;;4976782;28;20216;-82
2023/07/13 14:04:59;;;;;;;6.37;1.63;;;30.50;1.00;;;;;;4979233;28;20498;-80
2023/07/13 14:07:25;;;;;;;4.93;1.83;;;30.30;1.00;;;;;;4978873;28;20447;-80
2023/07/13 14:09:52;;;;;;;4.43;1.70;;;30.20;1.00;;;;;;4981325;28;20446;-81
2023/07/13 14:12:18;;;;;;;5.33;1.80;;;30.20;1.00;;;;;;4981002;28;20466;-81
2023/07/13 14:14:44;;;;;;;5.50;1.70;;;30.20;1.00;;;;;;4980017;28;20530;-80
2023/07/13 14:17:30;;;;;;;5.73;1.67;;;29.90;1.00;;;;;;4983964;28;20577;-83
2023/07/13 14:19:59;;;;;;;5.80;2.00;;;29.70;1.00;;;;;;4981055;28;20196;-81